Rabun Gap, Georgia
Current Conditions -  °F | °C
As of 3:55 PM on Sunday 23 Nov 2014 (Local Time) from KTOC Reporting Station
Light Rain Light Rain  
Wind Chill: 51°   Ceiling: 600
Heat Index: 51°   Visibility: 5mi
Dew Point: 51°   Wind: 9mph
Humidity: 99%   Direction: 80°E
Pressure: 29.82"   Gusts: NA
Location:  34.96°N, 83.39°W
Report Text: KTOC 232055Z AUTO 08008KT 5SM -RA SCT002 BKN006 OVC015 11/10 A2982 RMK AO2 T01050103
Loading
Personal Weather Stations






























Interactive Weather Map New forecast layout! Learn more

10-Day Weather Forecast

Advertisements
Track Severe Weather on mobile